createdAt,value
2019-03-18T00:00:37.803Z,8.20
2019-03-18T00:03:07.162Z,10.07
2019-03-18T00:05:36.698Z,11.70
2019-03-18T00:08:06.109Z,12.47
2019-03-18T00:10:35.275Z,10.23
2019-03-18T00:13:04.719Z,7.83
2019-03-18T00:15:34.261Z,6.93
2019-03-18T00:18:03.930Z,6.30
2019-03-18T00:20:32.999Z,5.40
2019-03-18T00:23:02.535Z,4.80
2019-03-18T00:25:31.943Z,6.80
2019-03-18T00:28:01.438Z,4.40
2019-03-18T00:30:30.948Z,3.40
2019-03-18T00:33:03.011Z,2.93
2019-03-18T00:35:31.068Z,3.50
2019-03-18T00:38:00.706Z,2.43
2019-03-18T00:40:30.873Z,2.17
2019-03-18T00:42:59.992Z,4.27
2019-03-18T00:45:29.831Z,2.83
2019-03-18T00:47:59.261Z,3.87
2019-03-18T00:50:28.268Z,4.30
2019-03-18T00:52:57.350Z,4.33
2019-03-18T00:55:26.735Z,3.27
2019-03-18T00:57:56.568Z,4.83
2019-03-18T01:00:26.066Z,7.07
2019-03-18T01:02:55.614Z,7.87
2019-03-18T01:05:25.309Z,4.07
2019-03-18T01:07:54.755Z,4.37
2019-03-18T01:10:24.264Z,4.50
2019-03-18T01:12:53.389Z,2.73
2019-03-18T01:15:28.327Z,5.77
2019-03-18T01:17:54.711Z,4.03
2019-03-18T01:20:24.498Z,5.73
2019-03-18T01:22:53.504Z,4.60
2019-03-18T01:25:22.614Z,3.90
2019-03-18T01:27:51.664Z,2.67
2019-03-18T01:30:21.492Z,3.27
2019-03-18T01:32:51.023Z,1.87
2019-03-18T01:35:20.909Z,3.53
2019-03-18T01:37:50.560Z,5.27
2019-03-18T01:40:19.626Z,4.07
2019-03-18T01:42:49.667Z,4.00
2019-03-18T01:45:19.266Z,3.83
2019-03-18T01:47:49.068Z,3.77
2019-03-18T01:50:18.123Z,4.50
2019-03-18T01:52:47.645Z,3.60
2019-03-18T01:55:17.119Z,4.70
2019-03-18T01:57:46.676Z,6.10
2019-03-18T02:00:15.760Z,10.53
2019-03-18T02:02:44.913Z,10.40
2019-03-18T02:05:13.996Z,10.73
2019-03-18T02:07:43.862Z,11.53
2019-03-18T02:10:13.327Z,12.33
2019-03-18T02:12:43.494Z,8.40
2019-03-18T02:15:12.887Z,7.17
2019-03-18T02:17:43.119Z,7.00
2019-03-18T02:20:12.235Z,8.87
2019-03-18T02:22:42.205Z,9.63
2019-03-18T02:25:12.050Z,9.83
2019-03-18T02:27:41.739Z,9.60
2019-03-18T02:30:10.984Z,7.47
2019-03-18T02:32:40.813Z,8.83
2019-03-18T02:35:29.667Z,8.53
2019-03-18T02:37:59.337Z,12.53
2019-03-18T02:40:28.434Z,12.97
2019-03-18T02:42:58.323Z,11.80
2019-03-18T02:45:27.745Z,12.63
2019-03-18T02:47:57.148Z,10.07
2019-03-18T02:50:26.950Z,12.03
2019-03-18T02:52:56.395Z,10.33
2019-03-18T02:55:26.189Z,10.10
2019-03-18T02:57:55.318Z,9.33
2019-03-18T03:00:24.679Z,9.20
2019-03-18T03:02:53.700Z,9.17
2019-03-18T03:05:23.397Z,9.30
2019-03-18T03:07:52.500Z,11.00
2019-03-18T03:10:21.971Z,10.37
2019-03-18T03:12:51.826Z,10.03
2019-03-18T03:15:21.298Z,9.00
2019-03-18T03:17:51.595Z,10.50
2019-03-18T03:20:21.129Z,11.23
2019-03-18T03:22:50.790Z,11.10
2019-03-18T03:25:20.201Z,8.67
2019-03-18T03:27:49.291Z,10.07
2019-03-18T03:30:18.622Z,8.90
2019-03-18T03:32:48.274Z,8.70
2019-03-18T03:35:17.727Z,8.17
2019-03-18T03:37:47.125Z,6.73
2019-03-18T03:40:16.669Z,6.00
2019-03-18T03:42:45.827Z,7.90
2019-03-18T03:45:14.853Z,7.47
2019-03-18T03:47:44.028Z,7.40
2019-03-18T03:50:13.540Z,9.17
2019-03-18T03:52:42.613Z,8.27
2019-03-18T03:55:12.199Z,7.63
2019-03-18T03:57:41.273Z,7.60
2019-03-18T04:00:10.529Z,5.77
2019-03-18T04:02:39.620Z,6.07
2019-03-18T04:05:09.165Z,7.73
2019-03-18T04:07:38.371Z,8.30
2019-03-18T04:10:07.564Z,7.40
2019-03-18T04:12:37.763Z,6.93
2019-03-18T04:15:07.102Z,8.00
2019-03-18T04:17:36.169Z,7.13
2019-03-18T04:20:06.469Z,10.57
2019-03-18T04:22:35.564Z,10.07
2019-03-18T04:25:05.425Z,8.43
2019-03-18T04:27:35.256Z,7.80
2019-03-18T04:30:05.124Z,7.03
2019-03-18T04:32:34.280Z,9.30
2019-03-18T04:35:03.387Z,10.73
2019-03-18T04:37:32.879Z,9.73
2019-03-18T04:40:02.066Z,11.43
2019-03-18T04:42:31.530Z,11.60
2019-03-18T04:45:00.539Z,9.80
2019-03-18T04:47:30.291Z,11.40
2019-03-18T04:50:00.007Z,10.87
2019-03-18T04:52:29.450Z,12.87
2019-03-18T04:54:58.559Z,12.17
2019-03-18T04:57:27.672Z,16.67
2019-03-18T04:59:57.478Z,14.00
2019-03-18T05:02:27.229Z,12.23
2019-03-18T05:04:56.340Z,17.07
2019-03-18T05:07:26.048Z,14.10
2019-03-18T05:09:55.684Z,13.20
2019-03-18T05:12:25.443Z,11.30
2019-03-18T05:14:55.637Z,10.90
2019-03-18T05:17:26.771Z,10.77
2019-03-18T05:19:56.152Z,10.53
2019-03-18T05:22:25.278Z,7.67
2019-03-18T05:24:54.690Z,9.20
2019-03-18T05:27:24.057Z,8.10
2019-03-18T05:29:53.721Z,9.53
2019-03-18T05:32:23.109Z,12.83
2019-03-18T05:34:53.003Z,15.40
2019-03-18T05:37:22.137Z,16.53
2019-03-18T05:39:51.138Z,15.80
2019-03-18T05:42:20.626Z,17.30
2019-03-18T05:44:49.725Z,21.87
2019-03-18T05:47:18.798Z,22.73
2019-03-18T05:49:48.124Z,24.40
2019-03-18T05:52:17.736Z,26.03
2019-03-18T05:54:46.800Z,24.33
2019-03-18T05:57:16.243Z,24.20
2019-03-18T05:59:45.753Z,27.87
2019-03-18T06:02:14.921Z,25.87
2019-03-18T06:04:44.875Z,29.70
2019-03-18T06:07:13.930Z,23.53
2019-03-18T06:09:43.473Z,26.90
2019-03-18T06:12:13.264Z,26.43
2019-03-18T06:14:42.613Z,25.40
2019-03-18T06:17:11.732Z,24.93
2019-03-18T06:19:40.720Z,22.47
2019-03-18T06:22:10.307Z,23.77
2019-03-18T06:24:39.440Z,24.27
2019-03-18T06:27:09.301Z,19.60
2019-03-18T06:29:38.397Z,20.77
2019-03-18T06:32:07.452Z,20.87
2019-03-18T06:34:36.887Z,17.97
2019-03-18T06:37:06.320Z,17.17
2019-03-18T06:39:35.414Z,19.60
2019-03-18T06:42:04.553Z,21.00
2019-03-18T06:44:34.794Z,17.83
2019-03-18T06:47:03.861Z,17.47
2019-03-18T06:49:33.347Z,19.13
2019-03-18T06:52:03.369Z,20.10
2019-03-18T06:54:32.510Z,18.50
2019-03-18T06:57:01.990Z,19.47
2019-03-18T06:59:31.454Z,20.30
2019-03-18T07:02:00.646Z,21.30
2019-03-18T07:04:30.427Z,22.87
2019-03-18T07:06:59.931Z,20.57
2019-03-18T07:09:29.001Z,26.07
2019-03-18T07:11:58.445Z,27.67
2019-03-18T07:14:27.538Z,20.97
2019-03-18T07:16:56.998Z,24.63
2019-03-18T07:19:26.543Z,25.03
2019-03-18T07:21:56.310Z,28.23
2019-03-18T07:24:26.098Z,30.23
2019-03-18T07:26:56.158Z,31.37
2019-03-18T07:29:25.231Z,31.47
2019-03-18T07:31:55.061Z,27.27
2019-03-18T07:34:24.534Z,30.30
2019-03-18T07:36:54.043Z,26.63
2019-03-18T07:39:24.035Z,28.30
2019-03-18T07:41:53.174Z,25.70
2019-03-18T07:44:22.530Z,28.80
2019-03-18T07:46:52.348Z,24.17
2019-03-18T07:49:21.810Z,26.90
2019-03-18T07:51:50.870Z,27.60
2019-03-18T07:54:32.134Z,25.03
2019-03-18T07:56:52.015Z,24.67
2019-03-18T07:59:21.493Z,25.03
2019-03-18T08:01:50.859Z,24.63
2019-03-18T08:04:20.283Z,25.03
2019-03-18T08:06:49.901Z,20.47
2019-03-18T08:09:19.618Z,21.87
2019-03-18T08:11:49.089Z,22.40
2019-03-18T08:14:18.219Z,22.53
2019-03-18T08:16:47.702Z,23.07
2019-03-18T08:19:16.814Z,21.93
2019-03-18T08:21:46.188Z,26.97
2019-03-18T08:24:15.945Z,23.77
2019-03-18T08:26:45.002Z,22.33
2019-03-18T08:29:14.779Z,21.67
2019-03-18T08:31:44.228Z,21.37
2019-03-18T08:34:13.643Z,23.83
2019-03-18T08:36:42.956Z,22.53
2019-03-18T08:39:12.429Z,23.40
2019-03-18T08:41:42.254Z,22.33
2019-03-18T08:44:11.655Z,22.73
2019-03-18T08:46:41.114Z,21.33
2019-03-18T08:49:10.975Z,22.63
2019-03-18T08:51:40.030Z,24.77
2019-03-18T08:54:09.511Z,17.33
2019-03-18T08:56:38.901Z,18.37
2019-03-18T08:59:07.905Z,16.70
2019-03-18T09:01:37.877Z,16.57
2019-03-18T09:04:06.962Z,16.30
2019-03-18T09:06:36.554Z,16.23
2019-03-18T09:09:08.273Z,17.23
2019-03-18T09:11:37.760Z,17.80
2019-03-18T09:14:07.967Z,16.03
2019-03-18T09:16:37.348Z,14.97
2019-03-18T09:19:09.020Z,15.43
2019-03-18T09:21:38.492Z,16.10
2019-03-18T09:24:07.873Z,14.70
2019-03-18T09:26:36.958Z,15.27
2019-03-18T09:29:06.047Z,16.07
2019-03-18T09:31:35.503Z,20.83
2019-03-18T09:34:04.878Z,22.80
2019-03-18T09:36:34.286Z,20.97
2019-03-18T09:39:03.903Z,17.60
2019-03-18T09:41:33.324Z,14.80
2019-03-18T09:44:02.716Z,15.37
2019-03-18T09:46:31.996Z,16.30
2019-03-18T09:49:01.917Z,17.77
2019-03-18T09:51:31.359Z,15.10
2019-03-18T09:54:00.815Z,17.20
2019-03-18T09:56:29.933Z,18.37
2019-03-18T09:58:58.986Z,16.80
2019-03-18T10:01:29.104Z,16.77
2019-03-18T10:03:58.248Z,17.90
2019-03-18T10:06:27.720Z,20.77
2019-03-18T10:08:57.348Z,19.00
2019-03-18T10:11:26.774Z,22.93
2019-03-18T10:13:55.908Z,16.10
2019-03-18T10:16:25.319Z,17.63
2019-03-18T10:18:54.570Z,26.93
2019-03-18T10:21:23.730Z,20.43
2019-03-18T10:23:53.605Z,18.47
2019-03-18T10:26:22.662Z,14.40
2019-03-18T10:28:51.908Z,14.23
2019-03-18T10:31:21.078Z,17.10
2019-03-18T10:33:50.606Z,16.83
2019-03-18T10:36:20.114Z,17.30
2019-03-18T10:38:49.328Z,15.67
2019-03-18T10:41:18.480Z,11.47
2019-03-18T10:43:47.667Z,13.60
2019-03-18T10:46:16.829Z,12.63
2019-03-18T10:48:46.417Z,13.83
2019-03-18T10:51:15.602Z,12.47
2019-03-18T10:53:45.500Z,12.10
2019-03-18T10:56:14.572Z,11.40
2019-03-18T10:58:44.610Z,13.37
2019-03-18T11:01:13.791Z,16.63
2019-03-18T11:03:42.875Z,27.13
2019-03-18T11:06:12.034Z,27.30
2019-03-18T11:08:41.889Z,12.13
2019-03-18T11:11:10.862Z,12.07
2019-03-18T11:13:40.673Z,8.27
2019-03-18T11:16:09.693Z,7.90
2019-03-18T11:18:39.086Z,7.50
2019-03-18T11:21:08.177Z,8.53
2019-03-18T11:23:37.547Z,12.97
2019-03-18T11:26:07.344Z,8.70
2019-03-18T11:28:36.460Z,9.77
2019-03-18T11:31:05.509Z,9.40
2019-03-18T11:33:35.057Z,6.83
2019-03-18T11:36:04.116Z,8.87
2019-03-18T11:38:33.121Z,4.60
2019-03-18T11:41:02.260Z,5.60
2019-03-18T11:43:31.698Z,6.07
2019-03-18T11:46:01.108Z,22.50
2019-03-18T11:48:30.188Z,18.13
2019-03-18T11:50:59.727Z,36.63
2019-03-18T11:53:28.975Z,19.17
2019-03-18T11:55:58.387Z,27.97
2019-03-18T11:58:27.463Z,37.30
2019-03-18T12:00:57.348Z,16.03
2019-03-18T12:03:26.852Z,15.00
2019-03-18T12:05:55.908Z,18.83
2019-03-18T12:08:25.329Z,14.00
2019-03-18T12:10:54.750Z,10.23
2019-03-18T12:13:24.547Z,9.60
2019-03-18T12:15:53.641Z,6.40
2019-03-18T12:18:22.687Z,8.30
2019-03-18T12:20:52.061Z,8.00
2019-03-18T12:23:21.122Z,8.63
2019-03-18T12:25:50.203Z,5.30
2019-03-18T12:28:20.389Z,7.70
2019-03-18T12:30:49.875Z,5.10
2019-03-18T12:33:19.618Z,5.37
2019-03-18T12:35:48.703Z,6.60
2019-03-18T12:38:17.747Z,6.13
2019-03-18T12:40:46.830Z,5.33
2019-03-18T12:43:16.006Z,7.53
2019-03-18T12:45:45.680Z,5.23
2019-03-18T12:48:15.551Z,5.83
2019-03-18T12:50:55.625Z,6.37
2019-03-18T12:53:15.513Z,7.73
2019-03-18T12:55:44.765Z,7.00
2019-03-18T12:58:15.001Z,9.97
2019-03-18T13:00:45.100Z,6.17
2019-03-18T13:03:14.489Z,8.40
2019-03-18T13:05:43.893Z,7.73
2019-03-18T13:08:13.337Z,6.60
2019-03-18T13:10:42.710Z,7.50
2019-03-18T13:13:12.103Z,5.67
2019-03-18T13:15:41.824Z,5.77
2019-03-18T13:18:10.957Z,7.97
2019-03-18T13:20:40.386Z,6.33
2019-03-18T13:23:09.747Z,9.60
2019-03-18T13:25:39.131Z,6.53
2019-03-18T13:28:08.648Z,9.37
2019-03-18T13:30:38.436Z,7.83
2019-03-18T13:33:07.572Z,7.10
2019-03-18T13:35:37.719Z,6.53
2019-03-18T13:38:07.615Z,5.20
2019-03-18T13:40:37.359Z,7.33
2019-03-18T13:43:06.545Z,8.57
2019-03-18T13:45:35.719Z,7.27
2019-03-18T13:48:04.869Z,7.10
2019-03-18T13:50:33.987Z,5.77
2019-03-18T13:53:03.843Z,5.80
2019-03-18T13:55:33.579Z,7.20
2019-03-18T13:58:03.267Z,4.20
2019-03-18T14:00:32.792Z,4.83
2019-03-18T14:03:02.332Z,3.70
2019-03-18T14:05:32.099Z,4.37
2019-03-18T14:08:01.612Z,5.13
2019-03-18T14:10:30.822Z,4.67
2019-03-18T14:13:00.248Z,14.43
2019-03-18T14:15:30.138Z,6.37
2019-03-18T14:17:59.652Z,7.03
2019-03-18T14:20:28.775Z,3.77
2019-03-18T14:22:58.188Z,5.23
2019-03-18T14:25:27.537Z,3.33
2019-03-18T14:27:56.995Z,4.27
2019-03-18T14:30:26.381Z,5.37
2019-03-18T14:32:55.459Z,7.27
2019-03-18T14:35:24.908Z,7.03
2019-03-18T14:37:54.690Z,6.70
2019-03-18T14:40:23.822Z,6.13
2019-03-18T14:42:53.150Z,7.17
2019-03-18T14:45:22.244Z,5.57
2019-03-18T14:47:51.416Z,7.67
2019-03-18T14:50:20.595Z,7.30
2019-03-18T14:52:50.407Z,7.63
2019-03-18T14:55:19.949Z,12.20
2019-03-18T14:57:49.114Z,8.60
2019-03-18T15:00:20.045Z,6.00
2019-03-18T15:02:49.420Z,6.17
2019-03-18T15:05:18.547Z,7.17
2019-03-18T15:07:48.389Z,8.17
2019-03-18T15:10:17.974Z,6.77
2019-03-18T15:12:47.164Z,6.90
2019-03-18T15:15:16.491Z,12.97
2019-03-18T15:17:46.439Z,6.60
2019-03-18T15:20:17.284Z,8.83
2019-03-18T15:22:46.832Z,12.17
2019-03-18T15:25:19.170Z,14.20
2019-03-18T15:27:48.303Z,17.80
2019-03-18T15:30:18.664Z,13.13
2019-03-18T15:32:48.118Z,12.97
2019-03-18T15:35:17.586Z,15.47
2019-03-18T15:37:46.681Z,19.57
2019-03-18T15:40:16.695Z,14.53
2019-03-18T15:42:46.171Z,19.07
2019-03-18T15:45:16.001Z,13.47
2019-03-18T15:47:45.407Z,16.97
2019-03-18T15:50:15.807Z,32.60
2019-03-18T15:52:45.288Z,29.17
2019-03-18T15:55:14.794Z,14.67
2019-03-18T15:57:44.850Z,14.63
2019-03-18T16:00:15.634Z,10.23
2019-03-18T16:02:44.689Z,5.70
2019-03-18T16:05:14.044Z,11.40
2019-03-18T16:07:43.592Z,12.47
2019-03-18T16:10:13.194Z,10.63
2019-03-18T16:12:42.312Z,10.83
2019-03-18T16:15:11.675Z,11.53
2019-03-18T16:17:42.021Z,15.70
2019-03-18T16:20:12.344Z,12.80
2019-03-18T16:22:41.495Z,18.87
2019-03-18T16:25:11.019Z,19.87
2019-03-18T16:27:40.175Z,23.43
2019-03-18T16:30:11.686Z,27.23
2019-03-18T16:32:41.026Z,23.00
2019-03-18T16:35:10.682Z,16.07
2019-03-18T16:37:40.193Z,18.20
2019-03-18T16:40:10.657Z,15.90
2019-03-18T16:42:40.462Z,12.30
2019-03-18T16:45:10.974Z,13.00
2019-03-18T16:47:40.116Z,10.73
2019-03-18T16:50:11.291Z,13.63
2019-03-18T16:52:40.390Z,14.60
2019-03-18T16:55:09.504Z,19.50
2019-03-18T16:57:38.573Z,17.73
2019-03-18T17:00:10.214Z,19.97
2019-03-18T17:02:39.326Z,15.00
2019-03-18T17:05:08.696Z,14.80
2019-03-18T17:07:38.261Z,23.67
2019-03-18T17:10:07.625Z,12.77
2019-03-18T17:12:37.036Z,13.47
2019-03-18T17:15:06.609Z,18.97
2019-03-18T17:17:35.986Z,22.13
2019-03-18T17:20:06.309Z,21.77
2019-03-18T17:22:47.756Z,18.93
2019-03-18T17:25:08.703Z,22.57
2019-03-18T17:27:38.640Z,24.73
2019-03-18T17:30:10.676Z,29.27
2019-03-18T17:32:40.330Z,27.73
2019-03-18T17:35:12.372Z,27.83
2019-03-18T17:37:41.477Z,33.40
2019-03-18T17:40:11.398Z,32.23
2019-03-18T17:42:40.847Z,28.70
2019-03-18T17:45:10.851Z,32.07
2019-03-18T17:47:40.538Z,22.93
2019-03-18T17:50:11.551Z,26.77
2019-03-18T17:52:40.791Z,21.63
2019-03-18T17:55:09.923Z,24.47
2019-03-18T17:57:39.182Z,26.27
2019-03-18T18:00:10.903Z,25.67
2019-03-18T18:02:40.462Z,26.43
2019-03-18T18:05:09.608Z,27.07
2019-03-18T18:07:39.744Z,25.10
2019-03-18T18:10:08.947Z,27.77
2019-03-18T18:12:38.581Z,23.67
2019-03-18T18:15:07.696Z,25.43
2019-03-18T18:17:37.987Z,25.43
2019-03-18T18:20:07.475Z,26.73
2019-03-18T18:22:36.592Z,26.43
2019-03-18T18:25:06.674Z,27.07
2019-03-18T18:27:35.874Z,24.87
2019-03-18T18:30:05.907Z,34.67
2019-03-18T18:32:34.998Z,30.30
2019-03-18T18:35:04.506Z,29.60
2019-03-18T18:37:34.017Z,29.33
2019-03-18T18:40:04.854Z,27.10
2019-03-18T18:42:34.783Z,30.30
2019-03-18T18:45:04.908Z,25.77
2019-03-18T18:47:34.203Z,28.40
2019-03-18T18:50:03.337Z,25.00
2019-03-18T18:52:32.835Z,29.10
2019-03-18T18:55:01.945Z,34.33
2019-03-18T18:57:31.338Z,30.40
2019-03-18T19:00:00.434Z,32.50
2019-03-18T19:02:29.854Z,40.40
2019-03-18T19:04:59.258Z,55.33
2019-03-18T19:07:28.871Z,50.73
2019-03-18T19:09:58.785Z,53.43
2019-03-18T19:12:28.030Z,52.17
2019-03-18T19:14:57.200Z,57.17
2019-03-18T19:17:26.567Z,64.87
2019-03-18T19:19:56.234Z,56.63
2019-03-18T19:22:25.981Z,62.47
2019-03-18T19:24:55.385Z,69.33
2019-03-18T19:27:24.662Z,74.20
2019-03-18T19:29:54.038Z,73.93
2019-03-18T19:32:26.044Z,81.10
2019-03-18T19:34:54.935Z,77.53
2019-03-18T19:37:24.599Z,88.17
2019-03-18T19:39:53.800Z,104.93
2019-03-18T19:42:22.921Z,108.27
2019-03-18T19:44:52.646Z,115.07
2019-03-18T19:47:22.007Z,115.00
2019-03-18T19:49:51.242Z,118.67
2019-03-18T19:52:20.507Z,148.27
2019-03-18T19:54:50.185Z,158.77
2019-03-18T19:57:19.529Z,153.90
2019-03-18T19:59:49.489Z,165.83
2019-03-18T20:02:20.111Z,161.03
2019-03-18T20:04:49.322Z,141.20
2019-03-18T20:07:19.095Z,123.43
2019-03-18T20:09:48.335Z,108.40
2019-03-18T20:12:17.578Z,111.63
2019-03-18T20:14:46.885Z,103.30
2019-03-18T20:17:16.154Z,99.73
2019-03-18T20:19:45.995Z,88.90
2019-03-18T20:22:15.680Z,86.10
2019-03-18T20:24:44.897Z,111.17
2019-03-18T20:27:14.509Z,101.17
2019-03-18T20:29:44.131Z,96.07
2019-03-18T20:32:14.243Z,97.03
2019-03-18T20:34:43.890Z,93.17
2019-03-18T20:37:13.942Z,96.60
2019-03-18T20:39:43.290Z,87.50
2019-03-18T20:42:12.631Z,90.20
2019-03-18T20:44:42.729Z,77.53
2019-03-18T20:47:11.984Z,83.67
2019-03-18T20:49:41.272Z,78.20
2019-03-18T20:52:16.659Z,77.50
2019-03-18T20:54:41.831Z,77.93
2019-03-18T20:57:11.176Z,78.13
2019-03-18T20:59:40.432Z,85.77
2019-03-18T21:02:10.131Z,82.67
2019-03-18T21:04:39.484Z,78.80
2019-03-18T21:07:08.901Z,80.93
2019-03-18T21:09:38.208Z,80.63
2019-03-18T21:12:07.920Z,74.13
2019-03-18T21:14:37.227Z,85.30
2019-03-18T21:17:06.729Z,86.30
2019-03-18T21:19:36.519Z,78.43
2019-03-18T21:22:06.029Z,92.40
2019-03-18T21:24:35.915Z,89.83
2019-03-18T21:27:05.278Z,86.27
2019-03-18T21:29:34.553Z,75.87
2019-03-18T21:32:04.483Z,77.23
2019-03-18T21:34:35.726Z,79.30
2019-03-18T21:37:05.053Z,77.93
2019-03-18T21:39:35.132Z,68.30
2019-03-18T21:42:06.500Z,71.93
2019-03-18T21:44:37.981Z,67.33
2019-03-18T21:47:07.554Z,58.10
2019-03-18T21:49:38.557Z,52.90
2019-03-18T21:52:08.219Z,48.67
2019-03-18T21:54:38.902Z,48.87
2019-03-18T21:57:08.570Z,43.17
2019-03-18T21:59:38.762Z,47.60
2019-03-18T22:02:08.145Z,43.40
2019-03-18T22:04:37.993Z,38.60
2019-03-18T22:07:08.347Z,40.23
2019-03-18T22:09:38.655Z,38.13
2019-03-18T22:12:08.207Z,38.03
2019-03-18T22:14:37.758Z,42.03
2019-03-18T22:17:07.294Z,37.97
2019-03-18T22:19:40.111Z,37.97
2019-03-18T22:22:08.934Z,36.60
2019-03-18T22:24:45.223Z,38.23
2019-03-18T22:27:10.101Z,39.37
2019-03-18T22:29:39.414Z,37.50
2019-03-18T22:32:09.196Z,40.90
2019-03-18T22:34:38.326Z,45.40
2019-03-18T22:37:07.449Z,41.80
2019-03-18T22:39:36.473Z,43.67
2019-03-18T22:42:05.557Z,44.47
2019-03-18T22:44:34.659Z,45.87
2019-03-18T22:47:03.802Z,44.00
2019-03-18T22:49:32.915Z,49.70
2019-03-18T22:52:02.314Z,52.37
2019-03-18T22:54:32.137Z,57.00
2019-03-18T22:57:02.046Z,59.43
2019-03-18T22:59:31.461Z,57.57
2019-03-18T23:02:00.622Z,71.07
2019-03-18T23:04:29.794Z,78.27
2019-03-18T23:06:59.214Z,72.73
2019-03-18T23:09:28.410Z,66.83
2019-03-18T23:11:57.959Z,67.97
2019-03-18T23:14:27.476Z,76.73
2019-03-18T23:16:56.880Z,68.20
2019-03-18T23:19:25.966Z,68.57
2019-03-18T23:21:55.436Z,72.73
2019-03-18T23:24:24.927Z,59.33
2019-03-18T23:26:54.518Z,63.03
2019-03-18T23:29:23.688Z,61.23
2019-03-18T23:31:53.745Z,64.60
2019-03-18T23:34:23.485Z,60.17
2019-03-18T23:36:52.939Z,66.50
2019-03-18T23:39:22.127Z,61.70
2019-03-18T23:41:51.260Z,67.33
2019-03-18T23:44:20.849Z,64.33
2019-03-18T23:46:50.327Z,63.97
2019-03-18T23:49:19.863Z,67.27
2019-03-18T23:51:49.900Z,70.93
2019-03-18T23:54:21.579Z,75.20
2019-03-18T23:56:50.975Z,70.13
2019-03-18T23:59:20.744Z,78.57
